Time;durP1;ratioP1;P1;durP2;ratioP2;P2;SDS_P1;SDS_P2;PMS_P1;PMS_P2;Temp;Humidity;BMP_temperature;BMP_pressure;BME280_temperature;BME280_humidity;BME280_pressure;Samples;Min_cycle;Max_cycle;Signal;HPM_P1;HPM_P2
2022/08/25 00:02:46;;;;;;;9.55;4.50;;;25.40;77.10;;;;;;6200722;28;80466;-58
2022/08/25 00:05:47;;;;;;;9.23;3.50;;;25.40;77.40;;;;;;6194732;28;80299;-58
2022/08/25 00:08:47;;;;;;;11.40;5.10;;;25.50;77.50;;;;;;6194006;28;80433;-59
2022/08/25 00:11:48;;;;;;;12.27;4.75;;;25.50;77.20;;;;;;6198321;28;83207;-59
2022/08/25 00:14:48;;;;;;;14.15;5.13;;;25.50;76.90;;;;;;6196940;28;89739;-58
2022/08/25 00:17:49;;;;;;;17.25;4.47;;;25.50;77.20;;;;;;6196718;28;82842;-59
2022/08/25 00:20:49;;;;;;;12.18;4.85;;;25.50;77.20;;;;;;6199994;28;81091;-59
2022/08/25 00:23:50;;;;;;;15.73;5.28;;;25.50;76.90;;;;;;6206968;28;81132;-60
2022/08/25 00:26:51;;;;;;;10.73;5.25;;;25.50;76.80;;;;;;6186144;28;80458;-60
2022/08/25 00:29:51;;;;;;;11.68;4.78;;;25.60;76.90;;;;;;6177747;28;82694;-60
2022/08/25 00:32:52;;;;;;;12.60;4.55;;;25.60;76.80;;;;;;6199095;28;80847;-59
2022/08/25 00:35:53;;;;;;;10.85;4.70;;;25.60;76.50;;;;;;6197547;28;80125;-59
2022/08/25 00:38:53;;;;;;;9.60;4.75;;;25.70;76.40;;;;;;6197582;28;81472;-59
2022/08/25 01:00:32;;;;;;;11.00;4.53;;;25.70;75.50;;;;;;6157675;28;84795;-59
2022/08/25 01:03:34;;;;;;;10.40;3.72;;;25.60;75.40;;;;;;6175040;28;82578;-59
2022/08/25 01:06:34;;;;;;;14.07;4.82;;;25.50;75.40;;;;;;6173401;28;84583;-58
2022/08/25 01:09:35;;;;;;;7.63;4.00;;;25.50;75.50;;;;;;6171556;28;80387;-59
2022/08/25 01:12:36;;;;;;;11.00;3.67;;;25.50;75.50;;;;;;6172339;28;80834;-59
2022/08/25 01:15:36;;;;;;;11.20;3.60;;;25.50;75.50;;;;;;6164993;28;81475;-59
2022/08/25 01:18:37;;;;;;;8.88;3.60;;;25.50;75.60;;;;;;6175027;28;80982;-58
2022/08/25 01:21:38;;;;;;;9.95;4.38;;;25.40;75.60;;;;;;6171507;28;80861;-58
2022/08/25 01:24:38;;;;;;;12.80;4.35;;;25.40;75.60;;;;;;6171786;28;82505;-59
2022/08/25 01:27:39;;;;;;;9.45;4.57;;;25.40;75.70;;;;;;6171730;28;80329;-59
2022/08/25 01:30:39;;;;;;;10.13;3.95;;;25.30;75.80;;;;;;6175056;28;80579;-59
2022/08/25 01:33:41;;;;;;;9.52;4.20;;;25.30;75.70;;;;;;6171877;28;81417;-59
2022/08/25 01:36:41;;;;;;;11.32;4.50;;;25.30;75.70;;;;;;6170684;28;80919;-59
2022/08/25 01:39:42;;;;;;;11.23;4.22;;;25.30;75.70;;;;;;6172026;28;80975;-59
2022/08/25 01:42:42;;;;;;;11.63;4.88;;;25.30;75.40;;;;;;6171328;28;81282;-59
2022/08/25 01:45:43;;;;;;;12.40;4.10;;;25.20;75.60;;;;;;6172638;28;81005;-59
2022/08/25 01:48:43;;;;;;;16.92;4.03;;;25.20;75.80;;;;;;6170207;28;80380;-58
2022/08/25 01:51:44;;;;;;;9.73;4.25;;;25.20;76.00;;;;;;6174291;28;80791;-59
2022/08/25 01:54:44;;;;;;;20.95;5.13;;;25.20;76.00;;;;;;6161012;28;80029;-59
2022/08/25 01:57:45;;;;;;;14.45;5.65;;;25.20;75.90;;;;;;6172421;28;80818;-59
2022/08/25 02:00:45;;;;;;;12.23;4.00;;;25.20;75.90;;;;;;6176533;28;81085;-59
2022/08/25 02:03:46;;;;;;;16.67;4.22;;;25.10;75.90;;;;;;6192943;28;80838;-59
2022/08/25 02:06:46;;;;;;;9.10;4.15;;;24.90;76.50;;;;;;6195308;28;80874;-58
2022/08/25 02:09:47;;;;;;;9.80;3.63;;;24.70;77.10;;;;;;6198296;28;80580;-58
2022/08/25 02:12:49;;;;;;;16.85;4.35;;;24.70;77.30;;;;;;6192898;28;81454;-58
2022/08/25 02:15:50;;;;;;;19.20;5.25;;;24.80;77.20;;;;;;6194669;28;86336;-58
2022/08/25 02:18:50;;;;;;;8.07;3.85;;;24.90;76.90;;;;;;6195049;28;80989;-58
2022/08/25 02:21:51;;;;;;;8.45;4.18;;;24.80;77.00;;;;;;6198340;28;83453;-58
2022/08/25 02:24:51;;;;;;;14.93;4.65;;;24.80;77.20;;;;;;6197002;28;80637;-59
2022/08/25 02:27:52;;;;;;;12.63;5.00;;;24.80;76.90;;;;;;6193786;28;81474;-59
2022/08/25 02:30:52;;;;;;;9.40;4.30;;;24.80;76.80;;;;;;6194032;28;80668;-59
2022/08/25 02:33:53;;;;;;;14.35;4.85;;;24.90;77.30;;;;;;6195811;28;80998;-59
2022/08/25 02:36:54;;;;;;;11.65;4.10;;;24.90;76.90;;;;;;6197818;28;85631;-59
2022/08/25 02:39:54;;;;;;;14.05;5.50;;;25.00;76.50;;;;;;6194983;28;80053;-60
2022/08/25 02:42:56;;;;;;;8.80;4.20;;;25.10;76.10;;;;;;6194293;28;84649;-60
2022/08/25 02:45:56;;;;;;;12.98;4.82;;;25.00;75.80;;;;;;6194415;28;85311;-60
2022/08/25 02:48:57;;;;;;;9.70;4.65;;;24.90;76.10;;;;;;6198291;28;80595;-59
2022/08/25 02:51:59;;;;;;;9.63;3.78;;;25.00;76.00;;;;;;6191183;28;80552;-59
2022/08/25 02:54:59;;;;;;;8.90;4.88;;;25.00;76.00;;;;;;6192987;28;81153;-60
2022/08/25 02:58:00;;;;;;;19.17;5.10;;;25.00;75.80;;;;;;6201413;28;80793;-60
2022/08/25 03:01:00;;;;;;;12.70;5.18;;;24.90;76.10;;;;;;6180141;28;80538;-59
2022/08/25 03:04:01;;;;;;;10.40;4.38;;;24.90;75.90;;;;;;6198991;28;80495;-59
2022/08/25 03:07:02;;;;;;;14.45;3.88;;;24.90;76.10;;;;;;6199064;28;80129;-59
2022/08/25 03:10:02;;;;;;;11.15;4.93;;;25.00;76.00;;;;;;6198398;28;80583;-59
2022/08/25 03:13:03;;;;;;;12.38;5.10;;;25.00;76.00;;;;;;6165003;28;83239;-60
2022/08/25 03:16:04;;;;;;;15.77;5.57;;;25.00;76.10;;;;;;6174882;28;82151;-59
2022/08/25 03:19:04;;;;;;;11.05;4.55;;;25.00;76.10;;;;;;6199838;28;80170;-59
2022/08/25 03:22:05;;;;;;;19.20;6.05;;;25.00;75.90;;;;;;6199013;28;82601;-59
2022/08/25 03:28:26;;;;;;;19.23;4.55;;;24.90;76.20;;;;;;6173745;28;81874;-59
2022/08/25 03:31:27;;;;;;;11.27;4.88;;;24.90;76.40;;;;;;6192750;28;82847;-58
2022/08/25 03:34:27;;;;;;;8.15;4.93;;;24.90;76.50;;;;;;6185326;28;80972;-59
2022/08/25 03:37:28;;;;;;;15.70;5.05;;;24.80;76.50;;;;;;6185573;28;80962;-58
2022/08/25 03:40:28;;;;;;;10.85;5.00;;;24.90;76.50;;;;;;6182228;28;80409;-59
2022/08/25 03:43:30;;;;;;;16.25;5.30;;;24.90;76.40;;;;;;6185156;28;80426;-60
2022/08/25 03:46:31;;;;;;;17.23;4.90;;;24.90;76.40;;;;;;6193672;28;81106;-59
2022/08/25 03:49:31;;;;;;;16.40;6.07;;;24.80;76.50;;;;;;6200154;28;81138;-57
2022/08/25 03:52:32;;;;;;;11.13;5.80;;;24.80;76.60;;;;;;6198488;28;80695;-56
2022/08/25 03:55:32;;;;;;;11.57;4.97;;;24.90;76.50;;;;;;6193320;28;80656;-58
2022/08/25 03:58:32;;;;;;;13.15;5.00;;;24.80;76.00;;;;;;6197593;28;80521;-56
2022/08/25 04:01:33;;;;;;;15.43;5.38;;;24.70;76.50;;;;;;6196302;28;82638;-60
2022/08/25 04:04:34;;;;;;;18.17;5.50;;;24.70;77.10;;;;;;6192163;28;81957;-61
2022/08/25 04:07:34;;;;;;;15.40;4.55;;;24.80;77.20;;;;;;6191773;28;80821;-59
2022/08/25 04:10:35;;;;;;;12.93;5.20;;;24.90;77.00;;;;;;6192404;28;81190;-59
2022/08/25 04:13:36;;;;;;;22.85;5.60;;;25.00;77.00;;;;;;6184342;28;81108;-61
2022/08/25 04:16:36;;;;;;;15.32;5.18;;;25.10;76.80;;;;;;6191368;28;83558;-59
2022/08/25 04:19:37;;;;;;;13.40;4.97;;;25.20;77.30;;;;;;6190993;28;86942;-58
2022/08/25 04:22:37;;;;;;;15.63;4.53;;;25.20;76.30;;;;;;6185095;28;84010;-56
2022/08/25 04:25:38;;;;;;;13.00;4.45;;;25.30;76.30;;;;;;6188915;28;81001;-55
2022/08/25 04:28:38;;;;;;;17.88;6.05;;;25.40;76.00;;;;;;6192672;28;80601;-56
2022/08/25 04:31:39;;;;;;;12.23;4.68;;;25.40;75.50;;;;;;6189212;28;86667;-53
2022/08/25 04:34:40;;;;;;;15.25;5.65;;;25.50;75.30;;;;;;6193375;28;80407;-54
2022/08/25 04:37:40;;;;;;;12.68;5.57;;;25.50;75.20;;;;;;6191667;28;80313;-52
2022/08/25 04:40:41;;;;;;;9.20;4.78;;;25.50;75.10;;;;;;6190922;28;80687;-54
2022/08/25 04:43:42;;;;;;;15.23;4.75;;;25.60;75.10;;;;;;6190386;28;80953;-54
2022/08/25 04:46:42;;;;;;;8.75;4.85;;;25.60;75.10;;;;;;6187857;28;82704;-53
2022/08/25 04:49:43;;;;;;;19.23;5.63;;;25.60;75.70;;;;;;6197208;28;80940;-53
2022/08/25 04:52:43;;;;;;;13.70;4.95;;;25.60;75.40;;;;;;6191775;28;85602;-56
2022/08/25 04:55:44;;;;;;;10.43;4.68;;;25.60;76.10;;;;;;6190675;28;81006;-55
2022/08/25 04:58:48;;;;;;;16.88;5.18;;;25.60;76.00;;;;;;6185634;28;82671;-55
2022/08/25 05:01:49;;;;;;;14.70;5.40;;;25.70;76.40;;;;;;6186742;28;81471;-56
2022/08/25 05:04:50;;;;;;;13.38;4.72;;;25.70;76.10;;;;;;6195147;28;80966;-57
2022/08/25 05:07:51;;;;;;;13.05;4.38;;;25.70;76.30;;;;;;6193881;28;87149;-56
2022/08/25 05:10:53;;;;;;;17.40;5.43;;;25.70;76.40;;;;;;6194118;28;80134;-54
2022/08/25 05:13:53;;;;;;;8.52;4.60;;;25.70;76.60;;;;;;6191502;28;89426;-61
2022/08/25 05:16:54;;;;;;;16.73;5.25;;;25.70;76.90;;;;;;6196503;28;83661;-56
2022/08/25 05:19:54;;;;;;;13.00;5.43;;;25.70;76.70;;;;;;6195549;28;80798;-57
2022/08/25 05:22:55;;;;;;;22.90;5.88;;;25.80;77.00;;;;;;6197464;28;80800;-55
2022/08/25 05:25:55;;;;;;;27.67;6.65;;;25.80;76.90;;;;;;6195008;28;83437;-56
2022/08/25 05:28:56;;;;;;;10.13;6.05;;;25.80;77.10;;;;;;6198423;28;80890;-56
2022/08/25 05:31:56;;;;;;;13.73;5.32;;;25.80;77.20;;;;;;6196213;28;83824;-58
2022/08/25 05:34:57;;;;;;;21.80;7.57;;;25.90;77.10;;;;;;6198220;28;81842;-58
2022/08/25 05:37:57;;;;;;;19.48;5.28;;;25.90;77.20;;;;;;6195006;28;80805;-56
2022/08/25 05:40:58;;;;;;;18.92;6.10;;;25.90;76.90;;;;;;6197245;28;80848;-57
2022/08/25 05:43:58;;;;;;;17.67;6.28;;;25.90;77.10;;;;;;6179466;28;80277;-57
2022/08/25 05:46:59;;;;;;;17.88;6.75;;;25.90;77.80;;;;;;6192545;28;80034;-60
2022/08/25 05:50:00;;;;;;;17.38;6.05;;;25.90;77.60;;;;;;6196172;28;83872;-58
2022/08/25 05:53:00;;;;;;;17.42;6.53;;;25.90;77.60;;;;;;6195010;28;81229;-58
2022/08/25 05:56:01;;;;;;;40.88;7.03;;;25.90;77.60;;;;;;6194575;28;80385;-59
2022/08/25 05:59:01;;;;;;;22.67;6.70;;;25.90;77.60;;;;;;6186239;28;80895;-59
2022/08/25 06:05:21;;;;;;;19.83;6.75;;;25.90;77.60;;;;;;6188702;28;85525;-60
2022/08/25 06:08:22;;;;;;;22.13;6.05;;;25.90;77.60;;;;;;6189248;28;80723;-57
2022/08/25 06:11:22;;;;;;;24.67;5.88;;;25.90;77.40;;;;;;6189648;28;80558;-57
2022/08/25 06:14:23;;;;;;;27.45;5.18;;;26.00;77.50;;;;;;6187181;28;80744;-56
2022/08/25 06:17:23;;;;;;;51.38;7.00;;;26.00;77.80;;;;;;6188472;28;80455;-56
2022/08/25 06:20:25;;;;;;;23.33;5.47;;;26.00;77.60;;;;;;6189860;28;83315;-57
2022/08/25 06:23:25;;;;;;;12.27;5.80;;;26.10;77.80;;;;;;6190477;28;80668;-57
2022/08/25 06:26:26;;;;;;;12.38;6.07;;;26.10;77.60;;;;;;6189828;28;80836;-57
2022/08/25 06:29:26;;;;;;;28.35;7.15;;;26.10;77.60;;;;;;6190541;28;85762;-57
2022/08/25 06:32:27;;;;;;;23.63;6.10;;;26.10;77.80;;;;;;6190496;28;81767;-58
2022/08/25 06:35:27;;;;;;;22.73;6.53;;;26.10;77.90;;;;;;6183134;28;81814;-59
2022/08/25 06:38:28;;;;;;;16.88;6.25;;;26.10;78.90;;;;;;6193623;28;83908;-58
2022/08/25 06:41:29;;;;;;;19.60;5.97;;;26.10;78.30;;;;;;6192871;28;87188;-58
2022/08/25 06:44:29;;;;;;;17.38;7.45;;;26.20;78.10;;;;;;6180611;28;82548;-60
2022/08/25 06:47:30;;;;;;;24.30;7.10;;;26.10;78.60;;;;;;6192992;28;80904;-59
2022/08/25 06:50:31;;;;;;;21.67;5.82;;;26.20;78.30;;;;;;6194639;28;85047;-58
2022/08/25 06:53:31;;;;;;;18.08;6.50;;;26.20;78.40;;;;;;6193289;28;80831;-59
2022/08/25 06:56:32;;;;;;;29.67;8.25;;;26.20;78.20;;;;;;6195239;28;81378;-59
2022/08/25 06:59:33;;;;;;;22.77;7.97;;;26.20;78.00;;;;;;6193218;28;80375;-59
2022/08/25 07:02:33;;;;;;;28.10;7.10;;;26.20;78.30;;;;;;6192099;28;83453;-58
2022/08/25 07:05:34;;;;;;;18.65;6.22;;;26.20;78.60;;;;;;6192847;28;82874;-58
2022/08/25 07:08:35;;;;;;;15.05;6.65;;;26.20;78.00;;;;;;6195028;28;80372;-58
2022/08/25 07:11:36;;;;;;;16.38;7.20;;;26.20;77.90;;;;;;6194572;28;85137;-57
2022/08/25 07:14:36;;;;;;;17.67;6.68;;;26.30;78.00;;;;;;6191428;28;80788;-58
2022/08/25 07:17:37;;;;;;;24.25;8.77;;;26.30;78.00;;;;;;6198250;28;82373;-56
2022/08/25 07:20:37;;;;;;;19.98;7.25;;;26.30;78.30;;;;;;6198411;28;84338;-57
2022/08/25 07:23:38;;;;;;;22.02;8.27;;;26.30;78.40;;;;;;6187420;28;80769;-59
2022/08/25 07:26:39;;;;;;;24.27;8.07;;;26.30;78.70;;;;;;6198031;28;81268;-58
2022/08/25 07:29:40;;;;;;;25.00;7.60;;;26.30;78.90;;;;;;6196877;28;80323;-59
2022/08/25 07:32:40;;;;;;;24.40;7.38;;;26.30;78.40;;;;;;6198546;28;80766;-56
2022/08/25 07:35:41;;;;;;;20.95;7.97;;;26.30;78.60;;;;;;6187900;28;83352;-57
2022/08/25 07:38:41;;;;;;;28.58;7.85;;;26.30;78.60;;;;;;6198972;28;80474;-63
2022/08/25 07:41:42;;;;;;;26.05;8.02;;;26.40;78.40;;;;;;6193542;28;81301;-61
2022/08/25 07:44:42;;;;;;;17.50;7.10;;;26.40;78.40;;;;;;6198525;28;80872;-58
2022/08/25 07:47:43;;;;;;;23.65;8.55;;;26.40;78.20;;;;;;6197753;28;80645;-58
2022/08/25 07:50:46;;;;;;;27.15;7.70;;;26.40;78.30;;;;;;6195670;28;86467;-59
2022/08/25 07:53:47;;;;;;;28.13;8.73;;;26.40;78.40;;;;;;6201827;28;81733;-61
2022/08/25 07:56:47;;;;;;;32.45;8.20;;;26.40;78.10;;;;;;6200742;28;80207;-59
2022/08/25 07:59:48;;;;;;;29.27;8.73;;;26.40;77.50;;;;;;6198165;28;80284;-59
2022/08/25 08:02:48;;;;;;;30.23;8.93;;;26.40;77.60;;;;;;6189800;28;81237;-58
2022/08/25 08:05:49;;;;;;;32.70;9.70;;;26.40;77.80;;;;;;6192818;28;81226;-58
2022/08/25 08:08:49;;;;;;;36.20;9.48;;;26.40;77.60;;;;;;6193404;28;80458;-57
2022/08/25 08:11:50;;;;;;;28.33;9.68;;;26.50;77.70;;;;;;6188035;28;81972;-58
2022/08/25 08:14:51;;;;;;;31.63;8.75;;;26.50;77.60;;;;;;6189321;28;80169;-58
2022/08/25 08:17:51;;;;;;;31.60;9.07;;;26.50;77.40;;;;;;6191918;28;81453;-58
2022/08/25 08:20:52;;;;;;;34.97;9.25;;;26.50;77.00;;;;;;6193445;28;82218;-59
2022/08/25 08:23:53;;;;;;;45.22;10.60;;;26.50;77.40;;;;;;6193628;28;80835;-58
2022/08/25 08:26:53;;;;;;;26.67;7.82;;;26.50;76.50;;;;;;6190565;28;82756;-57
2022/08/25 08:29:54;;;;;;;35.03;9.80;;;26.50;77.00;;;;;;6194375;28;88689;-61
2022/08/25 08:32:55;;;;;;;26.85;7.68;;;26.50;77.30;;;;;;6193846;28;80363;-61
2022/08/25 08:35:55;;;;;;;25.58;8.68;;;26.60;78.00;;;;;;6198932;28;83716;-60
2022/08/25 08:38:56;;;;;;;37.33;8.48;;;26.60;77.50;;;;;;6202663;28;80736;-62
2022/08/25 08:45:16;;;;;;;37.22;10.52;;;26.70;79.20;;;;;;6193723;28;87422;-62
2022/08/25 08:48:17;;;;;;;50.22;10.57;;;26.70;78.80;;;;;;6192717;28;83134;-58
2022/08/25 08:51:17;;;;;;;31.67;10.75;;;26.70;78.70;;;;;;6198048;28;83118;-59
2022/08/25 08:54:19;;;;;;;43.30;11.77;;;26.70;78.60;;;;;;6195037;28;84153;-59
2022/08/25 08:57:19;;;;;;;38.05;10.35;;;26.70;79.20;;;;;;6197617;28;83190;-58
2022/08/25 09:00:20;;;;;;;33.05;11.68;;;26.80;79.30;;;;;;6181391;28;83428;-56
2022/08/25 09:03:21;;;;;;;38.17;10.32;;;26.70;79.40;;;;;;6198780;28;82911;-57
2022/08/25 09:06:22;;;;;;;44.35;10.70;;;26.70;78.80;;;;;;6194223;28;83084;-61
2022/08/25 09:09:22;;;;;;;32.45;10.13;;;26.70;78.80;;;;;;6193632;28;82911;-60
2022/08/25 09:12:23;;;;;;;35.15;9.73;;;26.70;79.00;;;;;;6196332;28;83541;-61
2022/08/25 09:15:23;;;;;;;27.42;9.90;;;26.80;78.70;;;;;;6190223;28;83666;-61
2022/08/25 09:18:24;;;;;;;33.58;9.05;;;26.80;78.90;;;;;;6198977;28;81089;-58
2022/08/25 09:21:24;;;;;;;37.13;9.70;;;26.80;79.30;;;;;;6197639;28;84633;-57
2022/08/25 09:24:25;;;;;;;24.33;9.80;;;26.80;79.30;;;;;;6202811;28;80796;-58
2022/08/25 09:27:25;;;;;;;31.48;9.35;;;26.80;78.80;;;;;;6206001;28;84166;-57
2022/08/25 09:30:26;;;;;;;29.90;9.30;;;26.90;78.80;;;;;;6180182;28;80873;-58
2022/08/25 09:33:26;;;;;;;25.33;8.40;;;26.90;78.80;;;;;;6195909;28;81375;-58
2022/08/25 09:36:28;;;;;;;29.27;9.77;;;26.90;78.40;;;;;;6197475;28;83963;-59
2022/08/25 09:39:28;;;;;;;28.92;8.70;;;26.90;77.80;;;;;;6200836;28;80638;-59
2022/08/25 09:42:29;;;;;;;34.95;9.43;;;26.90;77.30;;;;;;6195692;28;84066;-59
2022/08/25 09:45:29;;;;;;;28.02;8.30;;;26.90;77.20;;;;;;6191453;28;81588;-59
2022/08/25 09:48:36;;;;;;;27.63;7.70;;;27.00;77.60;;;;;;6191922;28;84585;-58
2022/08/25 09:51:38;;;;;;;35.72;8.38;;;27.00;77.00;;;;;;6191131;28;81109;-59
2022/08/25 09:54:40;;;;;;;29.77;7.57;;;27.00;76.50;;;;;;6192830;28;80995;-57
2022/08/25 09:57:40;;;;;;;25.13;7.65;;;27.00;76.10;;;;;;6190392;28;81399;-57
2022/08/25 10:00:41;;;;;;;21.23;8.07;;;27.00;75.80;;;;;;6186455;28;82074;-57
2022/08/25 10:03:41;;;;;;;29.52;7.65;;;27.00;75.70;;;;;;6188493;28;82268;-58
2022/08/25 10:06:42;;;;;;;21.88;7.05;;;27.10;75.80;;;;;;6187414;28;81254;-57
2022/08/25 10:09:42;;;;;;;32.63;8.45;;;27.10;75.50;;;;;;6188523;28;80936;-57
2022/08/25 10:12:43;;;;;;;55.60;11.55;;;27.10;75.50;;;;;;6194556;28;81764;-56
2022/08/25 10:15:44;;;;;;;56.90;10.65;;;27.10;76.00;;;;;;6185955;28;82865;-57
2022/08/25 10:18:44;;;;;;;34.67;10.75;;;27.10;76.40;;;;;;6191861;28;83517;-58
2022/08/25 10:21:45;;;;;;;43.70;11.88;;;27.10;75.90;;;;;;6193606;28;83457;-57
2022/08/25 10:24:45;;;;;;;31.73;7.85;;;27.20;76.30;;;;;;6190811;28;85054;-58
2022/08/25 10:27:46;;;;;;;39.13;10.48;;;27.20;76.30;;;;;;6191637;28;84994;-58
2022/08/25 10:30:46;;;;;;;32.20;10.50;;;27.20;76.90;;;;;;6177184;28;84462;-59
2022/08/25 10:33:47;;;;;;;31.45;10.20;;;27.30;76.80;;;;;;6193902;28;83772;-58
2022/08/25 10:36:47;;;;;;;35.90;10.27;;;27.30;77.00;;;;;;6193595;28;82966;-59
2022/08/25 10:39:48;;;;;;;31.88;9.77;;;27.30;78.40;;;;;;6195321;28;83801;-59
2022/08/25 10:42:48;;;;;;;34.05;11.25;;;27.30;78.40;;;;;;6196744;28;82041;-58
2022/08/25 10:45:49;;;;;;;36.40;11.07;;;27.30;78.40;;;;;;6192928;28;86468;-58
2022/08/25 10:48:49;;;;;;;32.70;10.70;;;27.30;78.00;;;;;;6186362;28;83540;-57
2022/08/25 10:51:50;;;;;;;38.13;10.90;;;27.30;77.40;;;;;;6193800;28;83345;-58
2022/08/25 10:54:50;;;;;;;44.33;13.85;;;27.30;77.40;;;;;;6192722;28;82852;-57
2022/08/25 10:57:51;;;;;;;24.77;10.63;;;27.30;77.10;;;;;;6193580;28;83405;-58
2022/08/25 11:00:52;;;;;;;35.33;10.98;;;27.30;77.40;;;;;;6188082;28;83046;-57
2022/08/25 11:03:52;;;;;;;33.90;13.55;;;27.30;77.20;;;;;;6192256;28;83028;-57
2022/08/25 11:06:53;;;;;;;33.22;11.93;;;27.30;76.40;;;;;;6192008;28;89131;-57
2022/08/25 11:09:53;;;;;;;35.33;11.80;;;27.30;76.50;;;;;;6190169;28;82810;-57
2022/08/25 11:12:54;;;;;;;27.38;9.40;;;27.30;76.40;;;;;;6189666;28;84625;-58
2022/08/25 11:15:55;;;;;;;30.80;9.10;;;27.30;75.90;;;;;;6187361;28;82959;-57
2022/08/25 11:18:55;;;;;;;41.00;9.23;;;27.30;75.80;;;;;;6187982;28;84408;-59
2022/08/25 11:21:56;;;;;;;35.72;8.43;;;27.30;75.90;;;;;;6190603;28;80394;-59
2022/08/25 11:24:56;;;;;;;23.38;7.75;;;27.40;76.00;;;;;;6184547;28;80607;-58
2022/08/25 11:27:57;;;;;;;16.52;7.47;;;27.40;76.10;;;;;;6197789;28;81445;-59
2022/08/25 11:30:57;;;;;;;30.65;7.90;;;27.40;76.70;;;;;;6199928;28;80050;-58
2022/08/25 11:33:58;;;;;;;25.55;7.53;;;27.50;76.50;;;;;;6210182;28;80724;-59
2022/08/25 11:36:59;;;;;;;29.27;5.75;;;27.50;75.80;;;;;;6191317;28;80915;-58
2022/08/25 11:40:00;;;;;;;29.50;7.32;;;27.50;75.70;;;;;;6186767;28;87512;-58
2022/08/25 11:43:00;;;;;;;25.23;8.07;;;27.50;74.90;;;;;;6191772;28;80505;-57
2022/08/25 11:46:01;;;;;;;16.48;6.97;;;27.50;75.20;;;;;;6193917;28;80967;-57
2022/08/25 11:49:03;;;;;;;29.48;7.10;;;27.50;75.20;;;;;;6196226;28;81345;-57
2022/08/25 11:52:03;;;;;;;28.02;7.38;;;27.50;74.90;;;;;;6194456;28;84802;-58
2022/08/25 11:55:04;;;;;;;36.58;8.85;;;27.50;74.70;;;;;;6192847;28;80809;-59
2022/08/25 11:58:05;;;;;;;28.35;7.63;;;27.60;74.50;;;;;;6194999;28;84329;-58
2022/08/25 12:01:05;;;;;;;32.30;7.72;;;27.50;74.60;;;;;;6194403;28;80401;-61
2022/08/25 12:04:06;;;;;;;33.78;7.28;;;27.60;74.60;;;;;;6194569;28;80669;-58
2022/08/25 12:07:09;;;;;;;31.10;9.00;;;27.60;74.80;;;;;;6191720;28;83924;-58
2022/08/25 12:10:10;;;;;;;23.33;6.68;;;27.60;74.70;;;;;;6181788;28;82645;-58
2022/08/25 12:13:10;;;;;;;21.98;6.70;;;27.60;73.80;;;;;;6194134;28;80640;-56
2022/08/25 12:16:11;;;;;;;21.80;7.45;;;27.60;73.30;;;;;;6194106;28;83529;-57
2022/08/25 12:19:11;;;;;;;23.20;7.22;;;27.60;73.60;;;;;;6193961;28;80947;-58
2022/08/25 12:22:12;;;;;;;29.75;6.70;;;27.60;73.80;;;;;;6181252;28;83443;-58
2022/08/25 12:25:12;;;;;;;19.30;6.90;;;27.50;74.60;;;;;;6193160;28;80926;-58
2022/08/25 12:28:13;;;;;;;21.13;6.43;;;27.60;74.30;;;;;;6193548;28;82083;-58
2022/08/25 12:31:13;;;;;;;25.27;7.70;;;27.60;74.10;;;;;;6194473;28;80152;-58
2022/08/25 12:34:14;;;;;;;29.70;8.32;;;27.60;73.90;;;;;;6193033;28;80862;-59
2022/08/25 12:37:14;;;;;;;20.20;6.72;;;27.60;74.20;;;;;;6171260;28;80901;-57
2022/08/25 12:40:15;;;;;;;28.75;7.63;;;27.60;74.00;;;;;;6173755;28;84368;-62
2022/08/25 12:43:15;;;;;;;31.67;7.35;;;27.60;74.60;;;;;;6178388;28;82708;-61
2022/08/25 12:46:16;;;;;;;29.95;7.68;;;27.60;75.20;;;;;;6185952;28;82871;-58
2022/08/25 12:49:16;;;;;;;31.80;8.27;;;27.70;75.40;;;;;;6183505;28;86840;-58
2022/08/25 12:52:17;;;;;;;27.75;8.02;;;27.70;76.60;;;;;;6175006;28;84390;-56
2022/08/25 12:55:17;;;;;;;21.95;7.05;;;27.80;76.40;;;;;;6176592;28;81392;-59
2022/08/25 12:58:18;;;;;;;19.95;6.88;;;27.90;76.90;;;;;;6180206;28;83073;-61
2022/08/25 13:01:18;;;;;;;27.73;9.43;;;27.90;77.00;;;;;;6162696;28;85715;-58
2022/08/25 13:04:19;;;;;;;18.23;6.30;;;28.00;76.10;;;;;;6169394;28;85531;-60
2022/08/25 13:07:19;;;;;;;22.45;7.30;;;28.00;72.40;;;;;;6163800;28;84155;-59
2022/08/25 13:10:20;;;;;;;25.27;6.55;;;28.00;73.00;;;;;;6180923;28;80845;-64
2022/08/25 13:13:22;;;;;;;24.85;7.13;;;28.00;72.60;;;;;;6175572;28;81136;-57
2022/08/25 13:16:26;;;;;;;26.77;7.13;;;28.10;73.30;;;;;;6170669;28;81661;-58
2022/08/25 13:19:26;;;;;;;40.20;6.65;;;28.20;72.80;;;;;;6182807;28;80793;-58
2022/08/25 13:22:27;;;;;;;27.70;7.90;;;28.20;72.30;;;;;;6178416;28;81429;-53
2022/08/25 13:25:27;;;;;;;43.75;7.30;;;28.20;71.70;;;;;;6176433;28;83441;-57
2022/08/25 13:28:28;;;;;;;23.70;7.43;;;28.20;72.00;;;;;;6171809;28;81183;-59
2022/08/25 13:31:28;;;;;;;25.70;7.70;;;28.30;73.80;;;;;;6180924;28;84106;-59
2022/08/25 13:34:29;;;;;;;19.25;6.13;;;28.30;71.40;;;;;;6197959;28;80723;-58
2022/08/25 13:37:32;;;;;;;23.92;8.07;;;28.20;71.70;;;;;;6197588;28;84907;-58
2022/08/25 13:40:35;;;;;;;31.95;7.80;;;28.30;72.70;;;;;;6190678;28;80670;-59
2022/08/25 13:43:35;;;;;;;25.95;7.63;;;28.30;70.80;;;;;;6195425;28;81053;-58
2022/08/25 13:46:36;;;;;;;22.55;7.18;;;28.30;68.30;;;;;;6198900;28;80789;-58
2022/08/25 13:49:36;;;;;;;27.48;8.50;;;28.30;68.80;;;;;;6173765;28;82727;-59
2022/08/25 13:52:37;;;;;;;25.20;7.60;;;28.30;69.20;;;;;;6197985;28;81254;-58
2022/08/25 13:55:37;;;;;;;28.55;6.78;;;28.30;69.20;;;;;;6188725;28;80734;-59
2022/08/25 13:58:38;;;;;;;37.85;8.25;;;28.20;69.00;;;;;;6197560;28;81337;-60
2022/08/25 14:01:38;;;;;;;22.20;7.25;;;28.20;69.60;;;;;;6194853;28;80514;-57
2022/08/25 14:04:39;;;;;;;32.65;7.32;;;28.20;68.80;;;;;;6167965;28;83467;-57
2022/08/25 14:07:39;;;;;;;20.83;7.25;;;28.10;68.10;;;;;;6197232;28;80328;-59
2022/08/25 14:10:40;;;;;;;15.90;6.35;;;28.00;67.80;;;;;;6197794;28;81217;-57
2022/08/25 14:13:40;;;;;;;24.98;7.13;;;28.10;67.20;;;;;;6192022;28;80887;-59
2022/08/25 14:16:41;;;;;;;22.73;6.15;;;28.00;68.00;;;;;;6180882;28;81984;-58
2022/08/25 14:19:42;;;;;;;26.90;6.45;;;28.00;67.80;;;;;;6188817;28;81052;-58
2022/08/25 14:22:43;;;;;;;34.85;6.88;;;28.00;68.60;;;;;;6193250;28;81345;-58
2022/08/25 14:25:43;;;;;;;31.65;8.20;;;28.00;68.40;;;;;;6195623;28;80688;-58
2022/08/25 14:28:44;;;;;;;21.98;6.65;;;28.10;68.40;;;;;;6198677;28;81157;-59
2022/08/25 14:31:44;;;;;;;28.27;7.55;;;28.20;68.40;;;;;;6197393;28;80881;-58
2022/08/25 14:34:45;;;;;;;23.58;7.30;;;28.20;67.90;;;;;;6195325;28;80429;-58
2022/08/25 14:37:45;;;;;;;22.30;7.00;;;28.20;67.90;;;;;;6198170;28;80243;-61
2022/08/25 14:40:46;;;;;;;25.73;6.40;;;28.20;68.00;;;;;;6193159;28;82280;-59
2022/08/25 14:43:47;;;;;;;26.23;7.03;;;28.30;67.70;;;;;;6170288;28;83382;-61
2022/08/25 14:46:47;;;;;;;29.83;7.28;;;28.30;68.20;;;;;;6192147;28;81710;-61
2022/08/25 14:49:48;;;;;;;34.08;8.13;;;28.30;68.10;;;;;;6194441;28;82750;-59
2022/08/25 14:52:48;;;;;;;20.30;7.05;;;28.20;67.70;;;;;;6199947;28;80521;-58
2022/08/25 14:55:52;;;;;;;26.50;7.80;;;28.20;68.60;;;;;;6191108;28;87415;-59
2022/08/25 14:58:53;;;;;;;29.15;8.07;;;28.20;68.60;;;;;;6198695;28;80712;-61
2022/08/25 15:01:54;;;;;;;34.85;8.32;;;28.10;69.20;;;;;;6197615;28;80314;-63
2022/08/25 15:04:54;;;;;;;35.35;8.32;;;28.10;68.50;;;;;;6200213;28;82117;-59
2022/08/25 15:11:14;;;;;;;29.80;8.10;;;28.10;68.40;;;;;;6198640;28;83548;-59
2022/08/25 15:14:15;;;;;;;41.55;12.38;;;28.00;68.10;;;;;;6202574;28;80327;-60
2022/08/25 15:17:15;;;;;;;63.67;16.60;;;28.00;67.60;;;;;;6198948;28;83075;-59
2022/08/25 15:20:16;;;;;;;47.65;17.35;;;28.00;67.70;;;;;;6197960;28;85100;-59
2022/08/25 15:23:16;;;;;;;64.65;20.83;;;28.00;68.00;;;;;;6190403;28;83345;-60
2022/08/25 15:26:17;;;;;;;60.47;21.48;;;27.90;68.00;;;;;;6197921;28;83807;-60
2022/08/25 15:29:17;;;;;;;75.88;24.52;;;27.90;68.20;;;;;;6190612;28;83184;-59
2022/08/25 15:32:18;;;;;;;76.38;22.73;;;27.90;68.20;;;;;;6196410;28;83322;-58
2022/08/25 15:35:18;;;;;;;66.50;22.45;;;27.80;68.10;;;;;;6197000;28;83317;-59
2022/08/25 15:38:19;;;;;;;80.07;26.83;;;27.80;68.10;;;;;;6196730;28;83265;-59
2022/08/25 15:41:21;;;;;;;71.13;21.73;;;27.80;68.40;;;;;;6197989;28;83379;-58
2022/08/25 15:44:21;;;;;;;53.90;20.27;;;27.80;68.50;;;;;;6197160;28;82895;-60
2022/08/25 15:47:22;;;;;;;58.45;20.33;;;27.70;68.50;;;;;;6199983;28;82995;-59
2022/08/25 15:50:25;;;;;;;57.20;17.23;;;27.70;68.80;;;;;;6192449;28;83917;-62
2022/08/25 15:53:26;;;;;;;37.88;14.95;;;27.70;69.60;;;;;;6191852;28;83008;-65
2022/08/25 15:56:26;;;;;;;39.15;12.50;;;27.70;69.40;;;;;;6188445;28;84127;-63
2022/08/25 15:59:27;;;;;;;49.40;10.70;;;27.70;69.60;;;;;;6191286;28;87784;-63